sensor_id;sensor_type;location;lat;lon;timestamp;temperature;humidity
13268;DHT22;6702;47.068;15.458;2023-05-10T00:02:44;11.80;99.90
13268;DHT22;6702;47.068;15.458;2023-05-10T00:05:47;11.80;99.90
13268;DHT22;6702;47.068;15.458;2023-05-10T00:08:50;11.80;99.90
13268;DHT22;6702;47.068;15.458;2023-05-10T00:11:53;11.70;99.90
13268;DHT22;6702;47.068;15.458;2023-05-10T00:14:56;11.70;99.90
13268;DHT22;6702;47.068;15.458;2023-05-10T00:18:01;11.70;99.90
13268;DHT22;6702;47.068;15.458;2023-05-10T00:21:05;11.70;99.90
13268;DHT22;6702;47.068;15.458;2023-05-10T00:24:08;11.70;99.90
13268;DHT22;6702;47.068;15.458;2023-05-10T00:27:11;11.60;99.90
13268;DHT22;6702;47.068;15.458;2023-05-10T00:30:14;11.60;99.90
13268;DHT22;6702;47.068;15.458;2023-05-10T00:33:19;11.60;99.90
13268;DHT22;6702;47.068;15.458;2023-05-10T00:36:22;11.50;99.90
13268;DHT22;6702;47.068;15.458;2023-05-10T00:39:25;11.40;99.90
13268;DHT22;6702;47.068;15.458;2023-05-10T00:42:30;11.40;99.90
13268;DHT22;6702;47.068;15.458;2023-05-10T00:45:34;11.30;99.90
13268;DHT22;6702;47.068;15.458;2023-05-10T00:48:39;11.30;99.90
13268;DHT22;6702;47.068;15.458;2023-05-10T00:51:42;11.30;99.90
13268;DHT22;6702;47.068;15.458;2023-05-10T00:54:46;11.30;99.90
13268;DHT22;6702;47.068;15.458;2023-05-10T00:57:50;11.30;99.90
13268;DHT22;6702;47.068;15.458;2023-05-10T01:00:54;11.30;99.90
13268;DHT22;6702;47.068;15.458;2023-05-10T01:04:00;11.30;99.90
13268;DHT22;6702;47.068;15.458;2023-05-10T01:07:03;11.30;99.90
13268;DHT22;6702;47.068;15.458;2023-05-10T01:10:07;11.20;99.90
13268;DHT22;6702;47.068;15.458;2023-05-10T01:13:11;11.20;99.90
13268;DHT22;6702;47.068;15.458;2023-05-10T01:16:16;11.20;99.90
13268;DHT22;6702;47.068;15.458;2023-05-10T01:19:24;11.20;99.90
13268;DHT22;6702;47.068;15.458;2023-05-10T01:22:48;11.20;99.90
13268;DHT22;6702;47.068;15.458;2023-05-10T01:26:27;11.20;99.90
13268;DHT22;6702;47.068;15.458;2023-05-10T01:30:05;11.10;99.90
13268;DHT22;6702;47.068;15.458;2023-05-10T01:33:21;11.00;99.90
13268;DHT22;6702;47.068;15.458;2023-05-10T01:36:31;11.00;99.90
13268;DHT22;6702;47.068;15.458;2023-05-10T01:39:42;11.00;99.90
13268;DHT22;6702;47.068;15.458;2023-05-10T01:42:51;10.90;99.90
13268;DHT22;6702;47.068;15.458;2023-05-10T01:46:00;10.90;99.90
13268;DHT22;6702;47.068;15.458;2023-05-10T01:49:20;10.80;99.90
13268;DHT22;6702;47.068;15.458;2023-05-10T01:52:28;10.80;99.90
13268;DHT22;6702;47.068;15.458;2023-05-10T01:55:41;10.70;99.90
13268;DHT22;6702;47.068;15.458;2023-05-10T01:58:47;10.70;99.90
13268;DHT22;6702;47.068;15.458;2023-05-10T02:01:52;10.70;99.90
13268;DHT22;6702;47.068;15.458;2023-05-10T02:04:57;10.70;99.90
13268;DHT22;6702;47.068;15.458;2023-05-10T02:08:01;10.70;99.90
13268;DHT22;6702;47.068;15.458;2023-05-10T02:11:05;10.70;99.90
13268;DHT22;6702;47.068;15.458;2023-05-10T02:14:10;10.60;99.90
13268;DHT22;6702;47.068;15.458;2023-05-10T02:17:14;10.60;99.90
13268;DHT22;6702;47.068;15.458;2023-05-10T02:20:20;10.60;99.90
13268;DHT22;6702;47.068;15.458;2023-05-10T02:23:25;10.60;99.90
13268;DHT22;6702;47.068;15.458;2023-05-10T02:26:29;10.60;99.90
13268;DHT22;6702;47.068;15.458;2023-05-10T02:29:34;10.60;99.90
13268;DHT22;6702;47.068;15.458;2023-05-10T02:32:39;10.50;99.90
13268;DHT22;6702;47.068;15.458;2023-05-10T02:35:44;10.50;99.90
13268;DHT22;6702;47.068;15.458;2023-05-10T02:38:48;10.40;99.90
13268;DHT22;6702;47.068;15.458;2023-05-10T02:41:53;10.40;99.90
13268;DHT22;6702;47.068;15.458;2023-05-10T02:45:00;10.30;99.90
13268;DHT22;6702;47.068;15.458;2023-05-10T02:48:04;10.20;99.90
13268;DHT22;6702;47.068;15.458;2023-05-10T02:51:10;10.30;99.90
13268;DHT22;6702;47.068;15.458;2023-05-10T02:54:18;10.30;99.90
13268;DHT22;6702;47.068;15.458;2023-05-10T02:57:26;10.20;99.90
13268;DHT22;6702;47.068;15.458;2023-05-10T03:00:30;10.20;99.90
13268;DHT22;6702;47.068;15.458;2023-05-10T03:03:33;10.10;99.90
13268;DHT22;6702;47.068;15.458;2023-05-10T03:06:38;10.10;99.90
13268;DHT22;6702;47.068;15.458;2023-05-10T03:09:41;10.10;99.90
13268;DHT22;6702;47.068;15.458;2023-05-10T03:13:00;10.10;99.90
13268;DHT22;6702;47.068;15.458;2023-05-10T03:16:08;10.00;99.90
13268;DHT22;6702;47.068;15.458;2023-05-10T03:19:19;9.90;99.90
13268;DHT22;6702;47.068;15.458;2023-05-10T03:22:28;9.90;99.90
13268;DHT22;6702;47.068;15.458;2023-05-10T03:25:33;9.90;99.90
13268;DHT22;6702;47.068;15.458;2023-05-10T03:28:37;9.90;99.90
13268;DHT22;6702;47.068;15.458;2023-05-10T03:31:41;9.90;99.90
13268;DHT22;6702;47.068;15.458;2023-05-10T03:34:44;9.80;99.90
13268;DHT22;6702;47.068;15.458;2023-05-10T03:37:49;9.90;99.90
13268;DHT22;6702;47.068;15.458;2023-05-10T03:40:52;9.90;99.90
13268;DHT22;6702;47.068;15.458;2023-05-10T03:43:55;9.80;99.90
13268;DHT22;6702;47.068;15.458;2023-05-10T03:46:58;9.80;99.90
13268;DHT22;6702;47.068;15.458;2023-05-10T03:50:01;9.80;99.90
13268;DHT22;6702;47.068;15.458;2023-05-10T03:53:06;9.90;99.90
13268;DHT22;6702;47.068;15.458;2023-05-10T03:56:09;9.90;99.90
13268;DHT22;6702;47.068;15.458;2023-05-10T03:59:12;9.90;99.90
13268;DHT22;6702;47.068;15.458;2023-05-10T04:02:15;9.90;99.90
13268;DHT22;6702;47.068;15.458;2023-05-10T04:05:18;9.90;99.90
13268;DHT22;6702;47.068;15.458;2023-05-10T04:08:23;10.00;99.90
13268;DHT22;6702;47.068;15.458;2023-05-10T04:11:26;10.00;99.90
13268;DHT22;6702;47.068;15.458;2023-05-10T04:14:29;10.10;99.90
13268;DHT22;6702;47.068;15.458;2023-05-10T04:17:32;10.10;99.90
13268;DHT22;6702;47.068;15.458;2023-05-10T04:20:36;10.20;99.90
13268;DHT22;6702;47.068;15.458;2023-05-10T04:23:40;10.30;99.90
13268;DHT22;6702;47.068;15.458;2023-05-10T04:26:43;10.30;99.90
13268;DHT22;6702;47.068;15.458;2023-05-10T04:29:47;10.40;99.90
13268;DHT22;6702;47.068;15.458;2023-05-10T04:32:50;10.50;99.90
13268;DHT22;6702;47.068;15.458;2023-05-10T04:35:53;10.60;99.90
13268;DHT22;6702;47.068;15.458;2023-05-10T04:38:57;10.80;99.90
13268;DHT22;6702;47.068;15.458;2023-05-10T04:42:01;10.80;99.90
13268;DHT22;6702;47.068;15.458;2023-05-10T04:45:06;10.90;99.90
13268;DHT22;6702;47.068;15.458;2023-05-10T04:48:09;11.10;99.90
13268;DHT22;6702;47.068;15.458;2023-05-10T04:51:15;11.20;99.90
13268;DHT22;6702;47.068;15.458;2023-05-10T04:54:19;11.20;99.90
13268;DHT22;6702;47.068;15.458;2023-05-10T04:57:22;11.20;99.90
13268;DHT22;6702;47.068;15.458;2023-05-10T05:00:26;11.20;99.90
13268;DHT22;6702;47.068;15.458;2023-05-10T05:03:29;11.10;99.90
13268;DHT22;6702;47.068;15.458;2023-05-10T05:06:32;11.10;99.90
13268;DHT22;6702;47.068;15.458;2023-05-10T05:09:36;11.10;99.90
13268;DHT22;6702;47.068;15.458;2023-05-10T05:12:40;11.10;99.90
13268;DHT22;6702;47.068;15.458;2023-05-10T05:15:43;11.10;99.90
13268;DHT22;6702;47.068;15.458;2023-05-10T05:18:46;11.20;99.90
13268;DHT22;6702;47.068;15.458;2023-05-10T05:21:49;11.20;99.90
13268;DHT22;6702;47.068;15.458;2023-05-10T05:24:54;11.20;99.90
13268;DHT22;6702;47.068;15.458;2023-05-10T05:27:57;11.30;99.90
13268;DHT22;6702;47.068;15.458;2023-05-10T05:31:00;11.40;99.90
13268;DHT22;6702;47.068;15.458;2023-05-10T05:34:03;11.50;99.90
13268;DHT22;6702;47.068;15.458;2023-05-10T05:37:07;11.70;99.90
13268;DHT22;6702;47.068;15.458;2023-05-10T05:40:13;11.80;99.90
13268;DHT22;6702;47.068;15.458;2023-05-10T05:43:16;12.00;99.90
13268;DHT22;6702;47.068;15.458;2023-05-10T05:46:20;12.30;99.90
13268;DHT22;6702;47.068;15.458;2023-05-10T05:49:23;12.60;99.90
13268;DHT22;6702;47.068;15.458;2023-05-10T05:52:26;12.90;99.90
13268;DHT22;6702;47.068;15.458;2023-05-10T05:55:31;13.10;99.90
13268;DHT22;6702;47.068;15.458;2023-05-10T05:58:34;13.30;99.90
13268;DHT22;6702;47.068;15.458;2023-05-10T06:01:37;13.40;99.90
13268;DHT22;6702;47.068;15.458;2023-05-10T06:04:41;13.60;99.90
13268;DHT22;6702;47.068;15.458;2023-05-10T06:07:45;13.70;99.90
13268;DHT22;6702;47.068;15.458;2023-05-10T06:10:50;13.80;99.90
13268;DHT22;6702;47.068;15.458;2023-05-10T06:13:53;13.80;99.90
13268;DHT22;6702;47.068;15.458;2023-05-10T06:16:56;14.00;99.90
13268;DHT22;6702;47.068;15.458;2023-05-10T06:20:01;14.00;99.90
13268;DHT22;6702;47.068;15.458;2023-05-10T06:23:04;14.10;99.90
13268;DHT22;6702;47.068;15.458;2023-05-10T06:26:09;14.10;99.90
13268;DHT22;6702;47.068;15.458;2023-05-10T06:29:12;14.20;99.90
13268;DHT22;6702;47.068;15.458;2023-05-10T06:32:17;14.30;99.90
13268;DHT22;6702;47.068;15.458;2023-05-10T06:35:20;14.40;99.80
13268;DHT22;6702;47.068;15.458;2023-05-10T06:38:23;14.50;99.80
13268;DHT22;6702;47.068;15.458;2023-05-10T06:41:28;14.70;99.90
13268;DHT22;6702;47.068;15.458;2023-05-10T06:44:31;14.90;99.40
13268;DHT22;6702;47.068;15.458;2023-05-10T06:47:34;15.20;99.20
13268;DHT22;6702;47.068;15.458;2023-05-10T06:50:40;15.40;98.80
13268;DHT22;6702;47.068;15.458;2023-05-10T06:53:43;15.60;98.10
13268;DHT22;6702;47.068;15.458;2023-05-10T06:56:47;15.70;97.80
13268;DHT22;6702;47.068;15.458;2023-05-10T06:59:51;15.90;97.00
13268;DHT22;6702;47.068;15.458;2023-05-10T07:02:54;16.00;96.80
13268;DHT22;6702;47.068;15.458;2023-05-10T07:06:01;16.10;96.20
13268;DHT22;6702;47.068;15.458;2023-05-10T07:09:05;16.20;95.70
13268;DHT22;6702;47.068;15.458;2023-05-10T07:12:10;16.30;95.90
13268;DHT22;6702;47.068;15.458;2023-05-10T07:15:16;16.50;95.00
13268;DHT22;6702;47.068;15.458;2023-05-10T07:18:20;17.00;94.80
13268;DHT22;6702;47.068;15.458;2023-05-10T07:21:23;17.40;94.20
13268;DHT22;6702;47.068;15.458;2023-05-10T07:24:27;17.70;93.20
13268;DHT22;6702;47.068;15.458;2023-05-10T07:27:31;17.80;93.00
13268;DHT22;6702;47.068;15.458;2023-05-10T07:30:34;18.00;92.60
13268;DHT22;6702;47.068;15.458;2023-05-10T07:33:37;18.10;91.70
13268;DHT22;6702;47.068;15.458;2023-05-10T07:36:41;18.20;91.90
13268;DHT22;6702;47.068;15.458;2023-05-10T07:39:44;18.40;91.40
13268;DHT22;6702;47.068;15.458;2023-05-10T07:42:49;18.50;90.90
13268;DHT22;6702;47.068;15.458;2023-05-10T07:45:52;18.60;90.70
13268;DHT22;6702;47.068;15.458;2023-05-10T07:48:57;18.70;90.20
13268;DHT22;6702;47.068;15.458;2023-05-10T07:52:00;18.70;90.20
13268;DHT22;6702;47.068;15.458;2023-05-10T07:55:04;18.60;90.00
13268;DHT22;6702;47.068;15.458;2023-05-10T07:58:09;18.50;90.10
13268;DHT22;6702;47.068;15.458;2023-05-10T08:01:12;18.40;90.20
13268;DHT22;6702;47.068;15.458;2023-05-10T08:04:15;18.20;90.00
13268;DHT22;6702;47.068;15.458;2023-05-10T08:07:18;18.10;89.70
13268;DHT22;6702;47.068;15.458;2023-05-10T08:10:21;18.10;90.20
13268;DHT22;6702;47.068;15.458;2023-05-10T08:13:26;18.10;90.10
13268;DHT22;6702;47.068;15.458;2023-05-10T08:16:29;18.10;90.30
13268;DHT22;6702;47.068;15.458;2023-05-10T08:19:34;18.00;90.50
13268;DHT22;6702;47.068;15.458;2023-05-10T08:22:38;18.10;90.70
13268;DHT22;6702;47.068;15.458;2023-05-10T08:25:41;18.20;90.30
13268;DHT22;6702;47.068;15.458;2023-05-10T08:28:46;18.20;90.40
13268;DHT22;6702;47.068;15.458;2023-05-10T08:31:49;18.10;89.60
13268;DHT22;6702;47.068;15.458;2023-05-10T08:34:52;18.10;88.40
13268;DHT22;6702;47.068;15.458;2023-05-10T08:37:55;18.00;88.30
13268;DHT22;6702;47.068;15.458;2023-05-10T08:40:59;17.90;85.60
13268;DHT22;6702;47.068;15.458;2023-05-10T08:44:08;18.00;85.20
13268;DHT22;6702;47.068;15.458;2023-05-10T08:47:11;18.20;85.50
13268;DHT22;6702;47.068;15.458;2023-05-10T08:50:17;18.30;83.40
13268;DHT22;6702;47.068;15.458;2023-05-10T08:53:21;18.50;84.30
13268;DHT22;6702;47.068;15.458;2023-05-10T08:56:26;18.70;85.30
13268;DHT22;6702;47.068;15.458;2023-05-10T08:59:30;18.90;83.50
13268;DHT22;6702;47.068;15.458;2023-05-10T09:02:35;18.90;81.30
13268;DHT22;6702;47.068;15.458;2023-05-10T09:05:39;19.10;81.70
13268;DHT22;6702;47.068;15.458;2023-05-10T09:08:43;19.40;78.50
13268;DHT22;6702;47.068;15.458;2023-05-10T09:11:47;19.40;79.40
13268;DHT22;6702;47.068;15.458;2023-05-10T09:14:52;19.70;79.70
13268;DHT22;6702;47.068;15.458;2023-05-10T09:17:57;20.70;75.70
13268;DHT22;6702;47.068;15.458;2023-05-10T09:21:04;21.40;73.20
13268;DHT22;6702;47.068;15.458;2023-05-10T09:24:08;22.10;71.20
13268;DHT22;6702;47.068;15.458;2023-05-10T09:27:14;22.10;68.90
13268;DHT22;6702;47.068;15.458;2023-05-10T09:30:25;22.20;67.70
13268;DHT22;6702;47.068;15.458;2023-05-10T09:33:28;22.10;67.10
13268;DHT22;6702;47.068;15.458;2023-05-10T09:36:31;21.40;68.20
13268;DHT22;6702;47.068;15.458;2023-05-10T09:39:36;21.50;68.70
13268;DHT22;6702;47.068;15.458;2023-05-10T09:42:39;21.80;66.60
13268;DHT22;6702;47.068;15.458;2023-05-10T09:45:48;21.90;64.70
13268;DHT22;6702;47.068;15.458;2023-05-10T09:48:51;21.50;65.00
13268;DHT22;6702;47.068;15.458;2023-05-10T09:52:02;21.50;65.20
13268;DHT22;6702;47.068;15.458;2023-05-10T09:55:06;21.40;64.90
13268;DHT22;6702;47.068;15.458;2023-05-10T09:58:09;21.00;65.10
13268;DHT22;6702;47.068;15.458;2023-05-10T10:01:14;21.00;67.30
13268;DHT22;6702;47.068;15.458;2023-05-10T10:04:17;21.50;67.20
13268;DHT22;6702;47.068;15.458;2023-05-10T10:07:24;21.90;66.10
13268;DHT22;6702;47.068;15.458;2023-05-10T10:10:28;21.60;65.10
13268;DHT22;6702;47.068;15.458;2023-05-10T10:13:32;22.00;65.50
13268;DHT22;6702;47.068;15.458;2023-05-10T10:16:36;22.30;64.50
13268;DHT22;6702;47.068;15.458;2023-05-10T10:19:52;22.80;62.90
13268;DHT22;6702;47.068;15.458;2023-05-10T10:22:56;22.70;60.10
13268;DHT22;6702;47.068;15.458;2023-05-10T10:25:59;23.00;59.60
13268;DHT22;6702;47.068;15.458;2023-05-10T10:29:10;23.50;58.40
13268;DHT22;6702;47.068;15.458;2023-05-10T10:32:24;23.70;56.90
13268;DHT22;6702;47.068;15.458;2023-05-10T10:35:29;23.50;57.10
13268;DHT22;6702;47.068;15.458;2023-05-10T10:38:55;23.00;58.90
13268;DHT22;6702;47.068;15.458;2023-05-10T10:42:01;23.00;58.00
13268;DHT22;6702;47.068;15.458;2023-05-10T10:45:14;22.90;57.50
13268;DHT22;6702;47.068;15.458;2023-05-10T10:48:23;22.50;58.60
13268;DHT22;6702;47.068;15.458;2023-05-10T10:51:29;22.30;59.30
13268;DHT22;6702;47.068;15.458;2023-05-10T10:54:32;22.40;59.00
13268;DHT22;6702;47.068;15.458;2023-05-10T10:57:46;22.60;58.60
13268;DHT22;6702;47.068;15.458;2023-05-10T11:00:50;22.80;59.50
13268;DHT22;6702;47.068;15.458;2023-05-10T11:04:19;22.90;58.80
13268;DHT22;6702;47.068;15.458;2023-05-10T11:07:23;22.90;58.60
13268;DHT22;6702;47.068;15.458;2023-05-10T11:10:27;22.60;57.50
13268;DHT22;6702;47.068;15.458;2023-05-10T11:13:33;22.50;59.60
13268;DHT22;6702;47.068;15.458;2023-05-10T11:16:41;22.20;58.50
13268;DHT22;6702;47.068;15.458;2023-05-10T11:20:07;22.10;60.00
13268;DHT22;6702;47.068;15.458;2023-05-10T11:23:12;21.60;61.80
13268;DHT22;6702;47.068;15.458;2023-05-10T11:26:18;21.70;62.30
13268;DHT22;6702;47.068;15.458;2023-05-10T11:29:25;21.50;62.00
13268;DHT22;6702;47.068;15.458;2023-05-10T11:32:29;21.10;61.70
13268;DHT22;6702;47.068;15.458;2023-05-10T11:35:39;20.80;62.20
13268;DHT22;6702;47.068;15.458;2023-05-10T11:38:44;20.40;63.80
13268;DHT22;6702;47.068;15.458;2023-05-10T11:41:48;20.00;64.90
13268;DHT22;6702;47.068;15.458;2023-05-10T11:44:52;19.60;67.20
13268;DHT22;6702;47.068;15.458;2023-05-10T11:47:57;19.30;69.00
13268;DHT22;6702;47.068;15.458;2023-05-10T11:51:02;19.20;68.80
13268;DHT22;6702;47.068;15.458;2023-05-10T11:54:07;19.50;69.90
13268;DHT22;6702;47.068;15.458;2023-05-10T11:57:11;19.60;69.70
13268;DHT22;6702;47.068;15.458;2023-05-10T12:00:14;19.80;68.80
13268;DHT22;6702;47.068;15.458;2023-05-10T12:03:18;19.70;68.60
13268;DHT22;6702;47.068;15.458;2023-05-10T12:06:26;19.70;69.10
13268;DHT22;6702;47.068;15.458;2023-05-10T12:09:29;19.60;68.90
13268;DHT22;6702;47.068;15.458;2023-05-10T12:12:45;19.60;67.60
13268;DHT22;6702;47.068;15.458;2023-05-10T12:15:50;19.40;68.60
13268;DHT22;6702;47.068;15.458;2023-05-10T12:18:57;19.40;68.30
13268;DHT22;6702;47.068;15.458;2023-05-10T12:22:04;19.30;69.50
13268;DHT22;6702;47.068;15.458;2023-05-10T12:25:09;19.10;69.40
13268;DHT22;6702;47.068;15.458;2023-05-10T12:28:12;19.10;69.80
13268;DHT22;6702;47.068;15.458;2023-05-10T12:31:15;19.00;69.20
13268;DHT22;6702;47.068;15.458;2023-05-10T12:34:31;18.80;70.70
13268;DHT22;6702;47.068;15.458;2023-05-10T12:37:36;18.60;71.20
13268;DHT22;6702;47.068;15.458;2023-05-10T12:40:40;18.50;71.20
13268;DHT22;6702;47.068;15.458;2023-05-10T12:43:44;18.40;71.50
13268;DHT22;6702;47.068;15.458;2023-05-10T12:46:48;18.40;71.70
13268;DHT22;6702;47.068;15.458;2023-05-10T12:49:51;18.30;71.30
13268;DHT22;6702;47.068;15.458;2023-05-10T12:52:56;18.30;71.80
13268;DHT22;6702;47.068;15.458;2023-05-10T12:55:59;18.50;71.60
13268;DHT22;6702;47.068;15.458;2023-05-10T12:59:02;18.60;71.80
13268;DHT22;6702;47.068;15.458;2023-05-10T13:02:06;18.70;71.60
13268;DHT22;6702;47.068;15.458;2023-05-10T13:05:09;18.70;71.40
13268;DHT22;6702;47.068;15.458;2023-05-10T13:08:16;18.90;72.20
13268;DHT22;6702;47.068;15.458;2023-05-10T13:11:19;19.00;71.30
13268;DHT22;6702;47.068;15.458;2023-05-10T13:14:23;19.10;71.60
13268;DHT22;6702;47.068;15.458;2023-05-10T13:17:27;19.20;70.30
13268;DHT22;6702;47.068;15.458;2023-05-10T13:20:31;19.10;69.90
13268;DHT22;6702;47.068;15.458;2023-05-10T13:23:35;19.10;69.80
13268;DHT22;6702;47.068;15.458;2023-05-10T13:26:38;19.00;69.80
13268;DHT22;6702;47.068;15.458;2023-05-10T13:29:42;18.90;70.50
13268;DHT22;6702;47.068;15.458;2023-05-10T13:32:46;18.90;71.50
13268;DHT22;6702;47.068;15.458;2023-05-10T13:35:49;19.00;72.10
13268;DHT22;6702;47.068;15.458;2023-05-10T13:38:56;19.00;72.60
13268;DHT22;6702;47.068;15.458;2023-05-10T13:41:59;19.00;72.50
13268;DHT22;6702;47.068;15.458;2023-05-10T13:45:03;18.90;71.80
13268;DHT22;6702;47.068;15.458;2023-05-10T13:48:06;18.70;72.70
13268;DHT22;6702;47.068;15.458;2023-05-10T13:51:09;18.70;73.20
13268;DHT22;6702;47.068;15.458;2023-05-10T13:54:14;18.80;73.60
13268;DHT22;6702;47.068;15.458;2023-05-10T13:57:19;18.70;73.20
13268;DHT22;6702;47.068;15.458;2023-05-10T14:00:22;18.80;73.50
13268;DHT22;6702;47.068;15.458;2023-05-10T14:03:25;18.90;73.20
13268;DHT22;6702;47.068;15.458;2023-05-10T14:06:28;19.10;72.70
13268;DHT22;6702;47.068;15.458;2023-05-10T14:09:33;19.30;72.30
13268;DHT22;6702;47.068;15.458;2023-05-10T14:12:36;19.40;71.40
13268;DHT22;6702;47.068;15.458;2023-05-10T14:15:40;19.50;71.10
13268;DHT22;6702;47.068;15.458;2023-05-10T14:18:43;19.60;69.60
13268;DHT22;6702;47.068;15.458;2023-05-10T14:21:46;19.70;69.10
13268;DHT22;6702;47.068;15.458;2023-05-10T14:24:51;19.80;69.50
13268;DHT22;6702;47.068;15.458;2023-05-10T14:27:54;19.80;69.90
13268;DHT22;6702;47.068;15.458;2023-05-10T14:30:57;19.70;69.50
13268;DHT22;6702;47.068;15.458;2023-05-10T14:34:00;19.80;69.80
13268;DHT22;6702;47.068;15.458;2023-05-10T14:37:04;19.80;69.20
13268;DHT22;6702;47.068;15.458;2023-05-10T14:40:11;19.60;69.50
13268;DHT22;6702;47.068;15.458;2023-05-10T14:43:15;19.50;70.30
13268;DHT22;6702;47.068;15.458;2023-05-10T14:46:18;19.40;69.90
13268;DHT22;6702;47.068;15.458;2023-05-10T14:49:22;19.50;70.20
13268;DHT22;6702;47.068;15.458;2023-05-10T14:52:27;19.50;70.30
13268;DHT22;6702;47.068;15.458;2023-05-10T14:55:32;19.60;70.40
13268;DHT22;6702;47.068;15.458;2023-05-10T14:58:36;19.70;69.50
13268;DHT22;6702;47.068;15.458;2023-05-10T15:01:39;19.80;68.80
13268;DHT22;6702;47.068;15.458;2023-05-10T15:04:44;19.90;69.20
13268;DHT22;6702;47.068;15.458;2023-05-10T15:07:47;20.10;69.10
13268;DHT22;6702;47.068;15.458;2023-05-10T15:10:52;20.30;68.50
13268;DHT22;6702;47.068;15.458;2023-05-10T15:13:57;20.30;68.10
13268;DHT22;6702;47.068;15.458;2023-05-10T15:17:00;20.40;67.60
13268;DHT22;6702;47.068;15.458;2023-05-10T15:20:04;20.40;67.40
13268;DHT22;6702;47.068;15.458;2023-05-10T15:23:07;20.20;67.30
13268;DHT22;6702;47.068;15.458;2023-05-10T15:26:13;20.00;67.70
13268;DHT22;6702;47.068;15.458;2023-05-10T15:29:16;20.00;68.30
13268;DHT22;6702;47.068;15.458;2023-05-10T15:32:21;20.10;68.70
13268;DHT22;6702;47.068;15.458;2023-05-10T15:35:25;20.10;68.60
13268;DHT22;6702;47.068;15.458;2023-05-10T15:38:28;20.20;68.90
13268;DHT22;6702;47.068;15.458;2023-05-10T15:41:33;20.30;68.60
13268;DHT22;6702;47.068;15.458;2023-05-10T15:44:36;20.30;67.70
13268;DHT22;6702;47.068;15.458;2023-05-10T15:47:40;20.30;67.30
13268;DHT22;6702;47.068;15.458;2023-05-10T15:50:43;20.20;67.60
13268;DHT22;6702;47.068;15.458;2023-05-10T15:53:46;20.20;67.80
13268;DHT22;6702;47.068;15.458;2023-05-10T15:57:08;20.20;67.30
13268;DHT22;6702;47.068;15.458;2023-05-10T16:00:12;20.10;66.70
13268;DHT22;6702;47.068;15.458;2023-05-10T16:03:15;19.90;67.50
13268;DHT22;6702;47.068;15.458;2023-05-10T16:06:19;19.70;67.90
13268;DHT22;6702;47.068;15.458;2023-05-10T16:09:22;19.50;68.50
13268;DHT22;6702;47.068;15.458;2023-05-10T16:12:28;19.20;68.70
13268;DHT22;6702;47.068;15.458;2023-05-10T16:15:32;19.10;70.00
13268;DHT22;6702;47.068;15.458;2023-05-10T16:18:35;19.00;70.60
13268;DHT22;6702;47.068;15.458;2023-05-10T16:21:38;18.90;71.40
13268;DHT22;6702;47.068;15.458;2023-05-10T16:24:42;18.70;72.20
13268;DHT22;6702;47.068;15.458;2023-05-10T16:27:46;18.60;73.40
13268;DHT22;6702;47.068;15.458;2023-05-10T16:30:50;18.60;74.40
13268;DHT22;6702;47.068;15.458;2023-05-10T16:33:53;18.60;75.00
13268;DHT22;6702;47.068;15.458;2023-05-10T16:36:56;18.60;75.30
13268;DHT22;6702;47.068;15.458;2023-05-10T16:39:59;18.50;75.20
13268;DHT22;6702;47.068;15.458;2023-05-10T16:43:04;18.50;75.80
13268;DHT22;6702;47.068;15.458;2023-05-10T16:46:11;18.40;75.60
13268;DHT22;6702;47.068;15.458;2023-05-10T16:49:14;18.20;75.10
13268;DHT22;6702;47.068;15.458;2023-05-10T16:52:17;18.20;75.80
13268;DHT22;6702;47.068;15.458;2023-05-10T16:55:21;18.20;75.60
13268;DHT22;6702;47.068;15.458;2023-05-10T16:58:28;18.20;75.00
13268;DHT22;6702;47.068;15.458;2023-05-10T17:01:32;18.20;75.00
13268;DHT22;6702;47.068;15.458;2023-05-10T17:04:36;18.10;75.20
13268;DHT22;6702;47.068;15.458;2023-05-10T17:07:39;18.10;75.10
13268;DHT22;6702;47.068;15.458;2023-05-10T17:10:42;18.10;76.00
13268;DHT22;6702;47.068;15.458;2023-05-10T17:13:47;18.00;76.10
13268;DHT22;6702;47.068;15.458;2023-05-10T17:16:50;18.00;77.10
13268;DHT22;6702;47.068;15.458;2023-05-10T17:19:54;18.00;76.50
13268;DHT22;6702;47.068;15.458;2023-05-10T17:22:57;18.00;77.00
13268;DHT22;6702;47.068;15.458;2023-05-10T17:26:03;18.00;77.30
13268;DHT22;6702;47.068;15.458;2023-05-10T17:29:07;18.00;77.60
13268;DHT22;6702;47.068;15.458;2023-05-10T17:32:11;17.90;77.60
13268;DHT22;6702;47.068;15.458;2023-05-10T17:35:14;17.80;78.00
13268;DHT22;6702;47.068;15.458;2023-05-10T17:38:18;17.80;78.50
13268;DHT22;6702;47.068;15.458;2023-05-10T17:41:21;17.80;79.20
13268;DHT22;6702;47.068;15.458;2023-05-10T17:44:26;17.80;78.80
13268;DHT22;6702;47.068;15.458;2023-05-10T17:47:30;17.80;79.30
13268;DHT22;6702;47.068;15.458;2023-05-10T17:50:33;17.80;79.90
13268;DHT22;6702;47.068;15.458;2023-05-10T17:53:37;17.70;80.20
13268;DHT22;6702;47.068;15.458;2023-05-10T17:56:40;17.70;80.50
13268;DHT22;6702;47.068;15.458;2023-05-10T17:59:45;17.70;80.70
13268;DHT22;6702;47.068;15.458;2023-05-10T18:02:48;17.60;81.60
13268;DHT22;6702;47.068;15.458;2023-05-10T18:05:51;17.60;81.10
13268;DHT22;6702;47.068;15.458;2023-05-10T18:08:56;17.70;81.70
13268;DHT22;6702;47.068;15.458;2023-05-10T18:12:01;17.60;81.80
13268;DHT22;6702;47.068;15.458;2023-05-10T18:15:06;17.60;82.00
13268;DHT22;6702;47.068;15.458;2023-05-10T18:18:10;17.60;82.30
13268;DHT22;6702;47.068;15.458;2023-05-10T18:21:13;17.60;82.40
13268;DHT22;6702;47.068;15.458;2023-05-10T18:24:17;17.50;83.20
13268;DHT22;6702;47.068;15.458;2023-05-10T18:27:38;17.50;83.20
13268;DHT22;6702;47.068;15.458;2023-05-10T18:30:45;17.40;82.40
13268;DHT22;6702;47.068;15.458;2023-05-10T18:33:49;17.40;82.80
13268;DHT22;6702;47.068;15.458;2023-05-10T18:36:52;17.40;83.40
13268;DHT22;6702;47.068;15.458;2023-05-10T18:39:55;17.40;83.80
13268;DHT22;6702;47.068;15.458;2023-05-10T18:42:59;17.40;84.00
13268;DHT22;6702;47.068;15.458;2023-05-10T18:46:04;17.30;84.30
13268;DHT22;6702;47.068;15.458;2023-05-10T18:49:07;17.40;85.00
13268;DHT22;6702;47.068;15.458;2023-05-10T18:52:11;17.40;85.20
13268;DHT22;6702;47.068;15.458;2023-05-10T18:55:14;17.30;85.50
13268;DHT22;6702;47.068;15.458;2023-05-10T18:58:18;17.30;86.00
13268;DHT22;6702;47.068;15.458;2023-05-10T19:01:23;17.30;86.20
13268;DHT22;6702;47.068;15.458;2023-05-10T19:04:27;17.20;86.40
13268;DHT22;6702;47.068;15.458;2023-05-10T19:07:30;17.20;86.50
13268;DHT22;6702;47.068;15.458;2023-05-10T19:10:34;17.20;87.60
13268;DHT22;6702;47.068;15.458;2023-05-10T19:13:37;17.20;87.10
13268;DHT22;6702;47.068;15.458;2023-05-10T19:16:43;17.20;87.40
13268;DHT22;6702;47.068;15.458;2023-05-10T19:19:47;17.10;87.40
13268;DHT22;6702;47.068;15.458;2023-05-10T19:22:51;17.10;87.70
13268;DHT22;6702;47.068;15.458;2023-05-10T19:26:10;17.10;88.10
13268;DHT22;6702;47.068;15.458;2023-05-10T19:29:14;17.00;88.30
13268;DHT22;6702;47.068;15.458;2023-05-10T19:32:19;17.00;88.70